sensor_id;sensor_type;location;lat;lon;timestamp;P1;durP1;ratioP1;P2;durP2;ratioP2
71083;SDS011;58741;52.672;13.548;2024-03-22T00:01:48;6.68;;;3.00;;
71083;SDS011;58741;52.672;13.548;2024-03-22T00:04:15;6.18;;;2.63;;
71083;SDS011;58741;52.672;13.548;2024-03-22T00:06:41;6.07;;;3.40;;
71083;SDS011;58741;52.672;13.548;2024-03-22T00:09:08;6.00;;;3.25;;
71083;SDS011;58741;52.672;13.548;2024-03-22T00:11:34;6.00;;;3.28;;
71083;SDS011;58741;52.672;13.548;2024-03-22T00:14:01;5.85;;;3.08;;
71083;SDS011;58741;52.672;13.548;2024-03-22T00:16:28;5.03;;;2.92;;
71083;SDS011;58741;52.672;13.548;2024-03-22T00:18:54;3.95;;;2.38;;
71083;SDS011;58741;52.672;13.548;2024-03-22T00:21:21;6.38;;;3.33;;
71083;SDS011;58741;52.672;13.548;2024-03-22T00:23:47;4.88;;;2.80;;
71083;SDS011;58741;52.672;13.548;2024-03-22T00:26:12;8.70;;;3.67;;
71083;SDS011;58741;52.672;13.548;2024-03-22T00:28:38;5.38;;;3.28;;
71083;SDS011;58741;52.672;13.548;2024-03-22T00:31:04;6.53;;;3.47;;
71083;SDS011;58741;52.672;13.548;2024-03-22T00:33:30;5.75;;;3.17;;
71083;SDS011;58741;52.672;13.548;2024-03-22T00:35:57;4.90;;;2.78;;
71083;SDS011;58741;52.672;13.548;2024-03-22T00:38:23;4.05;;;2.65;;
71083;SDS011;58741;52.672;13.548;2024-03-22T00:40:49;4.93;;;2.97;;
71083;SDS011;58741;52.672;13.548;2024-03-22T00:43:14;4.90;;;2.92;;
71083;SDS011;58741;52.672;13.548;2024-03-22T00:45:40;5.97;;;2.75;;
71083;SDS011;58741;52.672;13.548;2024-03-22T00:48:06;5.38;;;2.95;;
71083;SDS011;58741;52.672;13.548;2024-03-22T00:50:32;5.80;;;2.88;;
71083;SDS011;58741;52.672;13.548;2024-03-22T00:52:58;5.43;;;3.05;;
71083;SDS011;58741;52.672;13.548;2024-03-22T00:55:24;5.20;;;2.88;;
71083;SDS011;58741;52.672;13.548;2024-03-22T00:57:50;5.10;;;2.95;;
71083;SDS011;58741;52.672;13.548;2024-03-22T01:00:16;7.22;;;3.55;;
71083;SDS011;58741;52.672;13.548;2024-03-22T01:02:43;5.63;;;3.20;;
71083;SDS011;58741;52.672;13.548;2024-03-22T01:05:09;5.00;;;3.13;;
71083;SDS011;58741;52.672;13.548;2024-03-22T01:07:36;5.68;;;3.25;;
71083;SDS011;58741;52.672;13.548;2024-03-22T01:10:05;7.13;;;3.17;;
71083;SDS011;58741;52.672;13.548;2024-03-22T01:12:31;5.45;;;3.28;;
71083;SDS011;58741;52.672;13.548;2024-03-22T01:14:57;5.95;;;3.22;;
71083;SDS011;58741;52.672;13.548;2024-03-22T01:17:23;5.60;;;3.30;;
71083;SDS011;58741;52.672;13.548;2024-03-22T01:19:49;5.60;;;3.00;;
71083;SDS011;58741;52.672;13.548;2024-03-22T01:22:16;6.00;;;3.03;;
71083;SDS011;58741;52.672;13.548;2024-03-22T01:24:43;5.18;;;3.08;;
71083;SDS011;58741;52.672;13.548;2024-03-22T01:27:09;6.75;;;3.83;;
71083;SDS011;58741;52.672;13.548;2024-03-22T01:29:35;5.80;;;3.50;;
71083;SDS011;58741;52.672;13.548;2024-03-22T01:32:01;5.65;;;3.33;;
71083;SDS011;58741;52.672;13.548;2024-03-22T01:34:27;6.65;;;3.65;;
71083;SDS011;58741;52.672;13.548;2024-03-22T01:36:53;6.25;;;3.25;;
71083;SDS011;58741;52.672;13.548;2024-03-22T01:39:20;6.60;;;3.83;;
71083;SDS011;58741;52.672;13.548;2024-03-22T01:41:50;7.00;;;3.55;;
71083;SDS011;58741;52.672;13.548;2024-03-22T01:44:16;6.30;;;4.00;;
71083;SDS011;58741;52.672;13.548;2024-03-22T01:46:42;6.85;;;3.63;;
71083;SDS011;58741;52.672;13.548;2024-03-22T01:49:09;5.80;;;3.83;;
71083;SDS011;58741;52.672;13.548;2024-03-22T01:51:39;6.10;;;3.20;;
71083;SDS011;58741;52.672;13.548;2024-03-22T01:54:05;5.38;;;3.28;;
71083;SDS011;58741;52.672;13.548;2024-03-22T01:56:34;6.80;;;4.00;;
71083;SDS011;58741;52.672;13.548;2024-03-22T01:59:07;6.68;;;3.60;;
71083;SDS011;58741;52.672;13.548;2024-03-22T02:01:33;5.35;;;3.38;;
71083;SDS011;58741;52.672;13.548;2024-03-22T02:03:59;6.85;;;4.00;;
71083;SDS011;58741;52.672;13.548;2024-03-22T02:06:26;7.45;;;3.35;;
71083;SDS011;58741;52.672;13.548;2024-03-22T02:08:51;7.90;;;4.28;;
71083;SDS011;58741;52.672;13.548;2024-03-22T02:11:17;6.60;;;3.83;;
71083;SDS011;58741;52.672;13.548;2024-03-22T02:13:44;7.22;;;4.00;;
71083;SDS011;58741;52.672;13.548;2024-03-22T02:16:09;6.28;;;3.38;;
71083;SDS011;58741;52.672;13.548;2024-03-22T02:18:35;7.88;;;3.90;;
71083;SDS011;58741;52.672;13.548;2024-03-22T02:21:01;7.55;;;4.10;;
71083;SDS011;58741;52.672;13.548;2024-03-22T02:23:34;5.53;;;3.53;;
71083;SDS011;58741;52.672;13.548;2024-03-22T02:26:01;7.47;;;3.80;;
71083;SDS011;58741;52.672;13.548;2024-03-22T02:28:27;5.93;;;3.58;;
71083;SDS011;58741;52.672;13.548;2024-03-22T02:30:53;5.97;;;3.60;;
71083;SDS011;58741;52.672;13.548;2024-03-22T02:33:19;6.85;;;3.88;;
71083;SDS011;58741;52.672;13.548;2024-03-22T02:35:48;7.22;;;3.83;;
71083;SDS011;58741;52.672;13.548;2024-03-22T02:38:14;5.88;;;3.65;;
71083;SDS011;58741;52.672;13.548;2024-03-22T02:40:42;6.47;;;3.80;;
71083;SDS011;58741;52.672;13.548;2024-03-22T02:43:08;9.50;;;4.82;;
71083;SDS011;58741;52.672;13.548;2024-03-22T02:45:34;9.20;;;4.13;;
71083;SDS011;58741;52.672;13.548;2024-03-22T02:48:00;7.60;;;4.45;;
71083;SDS011;58741;52.672;13.548;2024-03-22T02:50:26;6.85;;;3.72;;
71083;SDS011;58741;52.672;13.548;2024-03-22T02:52:52;7.93;;;3.92;;
71083;SDS011;58741;52.672;13.548;2024-03-22T02:55:18;6.00;;;3.50;;
71083;SDS011;58741;52.672;13.548;2024-03-22T02:57:44;8.60;;;3.83;;
71083;SDS011;58741;52.672;13.548;2024-03-22T03:00:10;8.23;;;3.70;;
71083;SDS011;58741;52.672;13.548;2024-03-22T03:02:36;5.50;;;3.05;;
71083;SDS011;58741;52.672;13.548;2024-03-22T03:05:02;6.97;;;3.22;;
71083;SDS011;58741;52.672;13.548;2024-03-22T03:07:28;8.10;;;3.90;;
71083;SDS011;58741;52.672;13.548;2024-03-22T03:09:54;7.93;;;4.10;;
71083;SDS011;58741;52.672;13.548;2024-03-22T03:12:20;8.95;;;3.63;;
71083;SDS011;58741;52.672;13.548;2024-03-22T03:14:45;8.38;;;4.35;;
71083;SDS011;58741;52.672;13.548;2024-03-22T03:17:11;6.95;;;3.85;;
71083;SDS011;58741;52.672;13.548;2024-03-22T03:19:37;8.25;;;4.15;;
71083;SDS011;58741;52.672;13.548;2024-03-22T03:22:03;6.18;;;3.42;;
71083;SDS011;58741;52.672;13.548;2024-03-22T03:24:29;7.93;;;3.78;;
71083;SDS011;58741;52.672;13.548;2024-03-22T03:26:55;7.63;;;3.47;;
71083;SDS011;58741;52.672;13.548;2024-03-22T03:29:21;7.40;;;3.80;;
71083;SDS011;58741;52.672;13.548;2024-03-22T03:31:47;5.90;;;3.28;;
71083;SDS011;58741;52.672;13.548;2024-03-22T03:34:14;8.60;;;4.28;;
71083;SDS011;58741;52.672;13.548;2024-03-22T03:36:40;9.00;;;4.45;;
71083;SDS011;58741;52.672;13.548;2024-03-22T03:39:06;8.75;;;4.50;;
71083;SDS011;58741;52.672;13.548;2024-03-22T03:41:31;11.77;;;4.85;;
71083;SDS011;58741;52.672;13.548;2024-03-22T03:43:57;7.38;;;3.72;;
71083;SDS011;58741;52.672;13.548;2024-03-22T03:46:23;10.45;;;4.00;;
71083;SDS011;58741;52.672;13.548;2024-03-22T03:48:49;8.75;;;4.00;;
71083;SDS011;58741;52.672;13.548;2024-03-22T03:51:15;7.53;;;4.03;;
71083;SDS011;58741;52.672;13.548;2024-03-22T03:53:40;7.22;;;3.63;;
71083;SDS011;58741;52.672;13.548;2024-03-22T03:56:06;6.07;;;2.97;;
71083;SDS011;58741;52.672;13.548;2024-03-22T03:58:32;5.65;;;3.03;;
71083;SDS011;58741;52.672;13.548;2024-03-22T04:00:58;8.18;;;3.38;;
71083;SDS011;58741;52.672;13.548;2024-03-22T04:03:24;8.75;;;4.10;;
71083;SDS011;58741;52.672;13.548;2024-03-22T04:05:56;7.75;;;3.78;;
71083;SDS011;58741;52.672;13.548;2024-03-22T04:08:22;6.32;;;3.38;;
71083;SDS011;58741;52.672;13.548;2024-03-22T04:10:55;7.28;;;3.53;;
71083;SDS011;58741;52.672;13.548;2024-03-22T04:13:22;8.13;;;4.45;;
71083;SDS011;58741;52.672;13.548;2024-03-22T04:15:52;7.55;;;3.83;;
71083;SDS011;58741;52.672;13.548;2024-03-22T04:18:18;7.18;;;3.83;;
71083;SDS011;58741;52.672;13.548;2024-03-22T04:20:54;7.32;;;3.75;;
71083;SDS011;58741;52.672;13.548;2024-03-22T04:23:20;6.95;;;3.45;;
71083;SDS011;58741;52.672;13.548;2024-03-22T04:25:59;7.53;;;4.10;;
71083;SDS011;58741;52.672;13.548;2024-03-22T04:28:27;7.38;;;3.75;;
71083;SDS011;58741;52.672;13.548;2024-03-22T04:30:54;7.07;;;3.53;;
71083;SDS011;58741;52.672;13.548;2024-03-22T04:33:21;5.53;;;3.05;;
71083;SDS011;58741;52.672;13.548;2024-03-22T04:35:47;7.47;;;4.28;;
71083;SDS011;58741;52.672;13.548;2024-03-22T04:38:13;7.15;;;4.10;;
71083;SDS011;58741;52.672;13.548;2024-03-22T04:40:39;6.18;;;3.28;;
71083;SDS011;58741;52.672;13.548;2024-03-22T04:43:05;6.80;;;3.33;;
71083;SDS011;58741;52.672;13.548;2024-03-22T04:45:31;6.07;;;3.75;;
71083;SDS011;58741;52.672;13.548;2024-03-22T04:47:57;9.10;;;4.30;;
71083;SDS011;58741;52.672;13.548;2024-03-22T04:50:23;7.28;;;4.25;;
71083;SDS011;58741;52.672;13.548;2024-03-22T04:52:49;8.68;;;3.90;;
71083;SDS011;58741;52.672;13.548;2024-03-22T04:55:14;9.27;;;4.45;;
71083;SDS011;58741;52.672;13.548;2024-03-22T04:57:40;7.40;;;4.00;;
71083;SDS011;58741;52.672;13.548;2024-03-22T05:00:06;7.47;;;4.05;;
71083;SDS011;58741;52.672;13.548;2024-03-22T05:02:34;8.13;;;3.67;;
71083;SDS011;58741;52.672;13.548;2024-03-22T05:05:00;11.05;;;4.50;;
71083;SDS011;58741;52.672;13.548;2024-03-22T05:07:25;6.47;;;3.47;;
71083;SDS011;58741;52.672;13.548;2024-03-22T05:09:51;8.68;;;4.30;;
71083;SDS011;58741;52.672;13.548;2024-03-22T05:12:17;7.57;;;3.75;;
71083;SDS011;58741;52.672;13.548;2024-03-22T05:14:43;9.23;;;4.10;;
71083;SDS011;58741;52.672;13.548;2024-03-22T05:17:09;8.43;;;3.95;;
71083;SDS011;58741;52.672;13.548;2024-03-22T05:19:35;8.82;;;4.05;;
71083;SDS011;58741;52.672;13.548;2024-03-22T05:22:00;8.52;;;3.92;;
71083;SDS011;58741;52.672;13.548;2024-03-22T05:24:26;8.18;;;4.00;;
71083;SDS011;58741;52.672;13.548;2024-03-22T05:26:52;9.57;;;4.07;;
71083;SDS011;58741;52.672;13.548;2024-03-22T05:29:18;9.00;;;4.57;;
71083;SDS011;58741;52.672;13.548;2024-03-22T05:31:48;6.25;;;3.30;;
71083;SDS011;58741;52.672;13.548;2024-03-22T05:34:16;8.10;;;3.55;;
71083;SDS011;58741;52.672;13.548;2024-03-22T05:36:43;6.45;;;3.92;;
71083;SDS011;58741;52.672;13.548;2024-03-22T05:39:09;9.30;;;3.92;;
71083;SDS011;58741;52.672;13.548;2024-03-22T05:41:38;5.68;;;3.10;;
71083;SDS011;58741;52.672;13.548;2024-03-22T05:44:04;7.18;;;3.53;;
71083;SDS011;58741;52.672;13.548;2024-03-22T05:46:30;9.20;;;3.95;;
71083;SDS011;58741;52.672;13.548;2024-03-22T05:48:57;7.85;;;4.15;;
71083;SDS011;58741;52.672;13.548;2024-03-22T05:51:24;6.75;;;3.67;;
71083;SDS011;58741;52.672;13.548;2024-03-22T05:53:51;7.25;;;3.78;;
71083;SDS011;58741;52.672;13.548;2024-03-22T05:56:16;5.88;;;3.85;;
71083;SDS011;58741;52.672;13.548;2024-03-22T05:58:42;9.00;;;4.43;;
71083;SDS011;58741;52.672;13.548;2024-03-22T06:01:08;10.60;;;4.55;;
71083;SDS011;58741;52.672;13.548;2024-03-22T06:03:34;7.70;;;3.65;;
71083;SDS011;58741;52.672;13.548;2024-03-22T06:06:00;7.70;;;3.58;;
71083;SDS011;58741;52.672;13.548;2024-03-22T06:08:26;9.85;;;4.30;;
71083;SDS011;58741;52.672;13.548;2024-03-22T06:10:52;6.15;;;4.10;;
71083;SDS011;58741;52.672;13.548;2024-03-22T06:13:21;6.35;;;3.53;;
71083;SDS011;58741;52.672;13.548;2024-03-22T06:15:50;8.73;;;4.38;;
71083;SDS011;58741;52.672;13.548;2024-03-22T06:18:16;7.60;;;3.78;;
71083;SDS011;58741;52.672;13.548;2024-03-22T06:20:42;9.18;;;3.88;;
71083;SDS011;58741;52.672;13.548;2024-03-22T06:23:08;6.95;;;3.92;;
71083;SDS011;58741;52.672;13.548;2024-03-22T06:25:35;8.40;;;4.43;;
71083;SDS011;58741;52.672;13.548;2024-03-22T06:28:01;7.60;;;3.83;;
71083;SDS011;58741;52.672;13.548;2024-03-22T06:30:27;7.38;;;4.07;;
71083;SDS011;58741;52.672;13.548;2024-03-22T06:32:53;9.82;;;3.88;;
71083;SDS011;58741;52.672;13.548;2024-03-22T06:35:23;8.32;;;3.95;;
71083;SDS011;58741;52.672;13.548;2024-03-22T06:37:49;8.75;;;4.32;;
71083;SDS011;58741;52.672;13.548;2024-03-22T06:40:16;6.35;;;3.85;;
71083;SDS011;58741;52.672;13.548;2024-03-22T06:42:42;8.82;;;3.65;;
71083;SDS011;58741;52.672;13.548;2024-03-22T06:45:08;13.05;;;5.30;;
71083;SDS011;58741;52.672;13.548;2024-03-22T06:47:34;9.52;;;4.13;;
71083;SDS011;58741;52.672;13.548;2024-03-22T06:50:00;8.68;;;4.32;;
71083;SDS011;58741;52.672;13.548;2024-03-22T06:52:26;10.50;;;4.15;;
71083;SDS011;58741;52.672;13.548;2024-03-22T06:54:52;10.45;;;4.90;;
71083;SDS011;58741;52.672;13.548;2024-03-22T06:57:18;7.35;;;3.83;;
71083;SDS011;58741;52.672;13.548;2024-03-22T06:59:44;7.40;;;4.03;;
71083;SDS011;58741;52.672;13.548;2024-03-22T07:02:10;9.75;;;4.20;;
71083;SDS011;58741;52.672;13.548;2024-03-22T07:04:36;9.05;;;4.47;;
71083;SDS011;58741;52.672;13.548;2024-03-22T07:07:01;7.63;;;4.00;;
71083;SDS011;58741;52.672;13.548;2024-03-22T07:09:27;9.00;;;4.20;;
71083;SDS011;58741;52.672;13.548;2024-03-22T07:11:55;9.43;;;4.47;;
71083;SDS011;58741;52.672;13.548;2024-03-22T07:14:21;6.43;;;3.58;;
71083;SDS011;58741;52.672;13.548;2024-03-22T07:16:50;9.63;;;4.28;;
71083;SDS011;58741;52.672;13.548;2024-03-22T07:19:16;6.78;;;3.90;;
71083;SDS011;58741;52.672;13.548;2024-03-22T07:21:42;7.60;;;3.85;;
71083;SDS011;58741;52.672;13.548;2024-03-22T07:24:07;9.90;;;5.13;;
71083;SDS011;58741;52.672;13.548;2024-03-22T07:26:33;10.18;;;5.15;;
71083;SDS011;58741;52.672;13.548;2024-03-22T07:28:59;9.38;;;4.38;;
71083;SDS011;58741;52.672;13.548;2024-03-22T07:31:26;10.10;;;5.22;;
71083;SDS011;58741;52.672;13.548;2024-03-22T07:33:53;10.57;;;4.68;;
71083;SDS011;58741;52.672;13.548;2024-03-22T07:36:19;8.00;;;4.22;;
71083;SDS011;58741;52.672;13.548;2024-03-22T07:38:45;11.90;;;4.97;;
71083;SDS011;58741;52.672;13.548;2024-03-22T07:41:11;7.65;;;4.03;;
71083;SDS011;58741;52.672;13.548;2024-03-22T07:43:37;8.88;;;4.80;;
71083;SDS011;58741;52.672;13.548;2024-03-22T07:46:03;10.80;;;5.68;;
71083;SDS011;58741;52.672;13.548;2024-03-22T07:48:29;14.13;;;6.53;;
71083;SDS011;58741;52.672;13.548;2024-03-22T07:50:55;15.35;;;6.32;;
71083;SDS011;58741;52.672;13.548;2024-03-22T07:53:24;10.52;;;5.90;;
71083;SDS011;58741;52.672;13.548;2024-03-22T07:55:51;10.48;;;4.68;;
71083;SDS011;58741;52.672;13.548;2024-03-22T07:58:17;9.35;;;5.35;;
71083;SDS011;58741;52.672;13.548;2024-03-22T08:00:44;9.40;;;5.25;;
71083;SDS011;58741;52.672;13.548;2024-03-22T08:03:16;10.48;;;4.70;;
71083;SDS011;58741;52.672;13.548;2024-03-22T08:05:42;11.57;;;5.20;;
71083;SDS011;58741;52.672;13.548;2024-03-22T08:08:08;10.05;;;4.43;;
71083;SDS011;58741;52.672;13.548;2024-03-22T08:10:34;12.60;;;5.90;;
71083;SDS011;58741;52.672;13.548;2024-03-22T08:13:00;13.20;;;5.50;;
71083;SDS011;58741;52.672;13.548;2024-03-22T08:15:26;12.63;;;6.60;;
71083;SDS011;58741;52.672;13.548;2024-03-22T08:17:52;11.82;;;5.80;;
71083;SDS011;58741;52.672;13.548;2024-03-22T08:20:18;12.63;;;6.20;;
71083;SDS011;58741;52.672;13.548;2024-03-22T08:22:44;10.85;;;6.22;;
71083;SDS011;58741;52.672;13.548;2024-03-22T08:25:10;11.88;;;5.95;;
71083;SDS011;58741;52.672;13.548;2024-03-22T08:27:36;8.75;;;4.30;;
71083;SDS011;58741;52.672;13.548;2024-03-22T08:30:01;11.55;;;5.88;;
71083;SDS011;58741;52.672;13.548;2024-03-22T08:32:29;9.57;;;5.53;;
71083;SDS011;58741;52.672;13.548;2024-03-22T08:34:54;10.43;;;5.53;;
71083;SDS011;58741;52.672;13.548;2024-03-22T08:37:21;11.00;;;6.07;;
71083;SDS011;58741;52.672;13.548;2024-03-22T08:39:46;10.85;;;5.82;;
71083;SDS011;58741;52.672;13.548;2024-03-22T08:42:12;13.60;;;6.10;;
71083;SDS011;58741;52.672;13.548;2024-03-22T08:44:38;12.93;;;6.18;;
71083;SDS011;58741;52.672;13.548;2024-03-22T08:47:04;8.93;;;4.70;;
71083;SDS011;58741;52.672;13.548;2024-03-22T08:49:30;12.48;;;4.90;;
71083;SDS011;58741;52.672;13.548;2024-03-22T08:51:56;14.82;;;6.85;;
71083;SDS011;58741;52.672;13.548;2024-03-22T08:54:22;16.00;;;6.90;;
71083;SDS011;58741;52.672;13.548;2024-03-22T08:56:48;19.55;;;9.40;;
71083;SDS011;58741;52.672;13.548;2024-03-22T08:59:14;15.35;;;7.95;;
71083;SDS011;58741;52.672;13.548;2024-03-22T09:01:40;11.90;;;6.45;;
71083;SDS011;58741;52.672;13.548;2024-03-22T09:04:05;12.70;;;7.00;;
71083;SDS011;58741;52.672;13.548;2024-03-22T09:06:31;16.77;;;6.95;;
71083;SDS011;58741;52.672;13.548;2024-03-22T09:08:57;15.15;;;6.82;;
71083;SDS011;58741;52.672;13.548;2024-03-22T09:11:26;11.73;;;6.18;;
71083;SDS011;58741;52.672;13.548;2024-03-22T09:13:52;9.95;;;5.22;;
71083;SDS011;58741;52.672;13.548;2024-03-22T09:16:19;11.27;;;6.00;;
71083;SDS011;58741;52.672;13.548;2024-03-22T09:18:48;12.52;;;5.65;;
71083;SDS011;58741;52.672;13.548;2024-03-22T09:21:14;9.35;;;4.63;;
71083;SDS011;58741;52.672;13.548;2024-03-22T09:23:40;9.02;;;4.47;;
71083;SDS011;58741;52.672;13.548;2024-03-22T09:26:06;19.92;;;8.07;;
71083;SDS011;58741;52.672;13.548;2024-03-22T09:28:32;12.63;;;6.18;;
71083;SDS011;58741;52.672;13.548;2024-03-22T09:30:58;10.85;;;5.60;;
71083;SDS011;58741;52.672;13.548;2024-03-22T09:33:28;11.95;;;5.97;;
71083;SDS011;58741;52.672;13.548;2024-03-22T09:35:54;11.85;;;6.45;;
71083;SDS011;58741;52.672;13.548;2024-03-22T09:38:20;14.25;;;6.40;;
71083;SDS011;58741;52.672;13.548;2024-03-22T09:40:46;10.30;;;4.82;;
71083;SDS011;58741;52.672;13.548;2024-03-22T09:43:12;13.25;;;5.20;;
71083;SDS011;58741;52.672;13.548;2024-03-22T09:45:43;8.80;;;4.78;;
71083;SDS011;58741;52.672;13.548;2024-03-22T09:48:10;11.13;;;6.43;;
71083;SDS011;58741;52.672;13.548;2024-03-22T09:50:36;9.88;;;5.72;;
71083;SDS011;58741;52.672;13.548;2024-03-22T09:53:02;10.35;;;6.20;;
71083;SDS011;58741;52.672;13.548;2024-03-22T09:55:29;11.90;;;6.28;;
71083;SDS011;58741;52.672;13.548;2024-03-22T09:57:57;10.82;;;5.63;;
71083;SDS011;58741;52.672;13.548;2024-03-22T10:00:23;11.75;;;5.72;;
71083;SDS011;58741;52.672;13.548;2024-03-22T10:02:51;11.10;;;4.72;;
71083;SDS011;58741;52.672;13.548;2024-03-22T10:05:18;8.40;;;4.32;;
71083;SDS011;58741;52.672;13.548;2024-03-22T10:07:44;7.60;;;3.97;;
71083;SDS011;58741;52.672;13.548;2024-03-22T10:10:10;8.25;;;4.60;;
71083;SDS011;58741;52.672;13.548;2024-03-22T10:12:37;7.85;;;4.68;;
71083;SDS011;58741;52.672;13.548;2024-03-22T10:15:04;10.13;;;5.32;;
71083;SDS011;58741;52.672;13.548;2024-03-22T10:17:34;11.38;;;6.28;;
71083;SDS011;58741;52.672;13.548;2024-03-22T10:20:00;10.45;;;5.13;;
71083;SDS011;58741;52.672;13.548;2024-03-22T10:22:26;15.43;;;6.80;;
71083;SDS011;58741;52.672;13.548;2024-03-22T10:24:52;11.85;;;6.35;;
71083;SDS011;58741;52.672;13.548;2024-03-22T10:27:18;10.57;;;6.00;;
71083;SDS011;58741;52.672;13.548;2024-03-22T10:29:45;10.90;;;6.45;;
71083;SDS011;58741;52.672;13.548;2024-03-22T10:32:12;13.00;;;5.50;;
71083;SDS011;58741;52.672;13.548;2024-03-22T10:34:39;10.88;;;5.97;;
71083;SDS011;58741;52.672;13.548;2024-03-22T10:37:06;13.45;;;6.57;;
71083;SDS011;58741;52.672;13.548;2024-03-22T10:39:35;9.15;;;4.68;;
71083;SDS011;58741;52.672;13.548;2024-03-22T10:42:02;12.50;;;6.47;;
71083;SDS011;58741;52.672;13.548;2024-03-22T10:44:30;10.27;;;5.38;;
71083;SDS011;58741;52.672;13.548;2024-03-22T10:46:56;11.30;;;4.85;;
71083;SDS011;58741;52.672;13.548;2024-03-22T10:49:27;8.48;;;4.55;;
71083;SDS011;58741;52.672;13.548;2024-03-22T10:51:57;10.15;;;4.63;;
71083;SDS011;58741;52.672;13.548;2024-03-22T10:54:26;10.85;;;5.10;;
71083;SDS011;58741;52.672;13.548;2024-03-22T10:56:57;10.45;;;6.05;;
71083;SDS011;58741;52.672;13.548;2024-03-22T10:59:23;7.93;;;4.60;;
71083;SDS011;58741;52.672;13.548;2024-03-22T11:01:49;7.70;;;3.75;;
71083;SDS011;58741;52.672;13.548;2024-03-22T11:04:21;5.43;;;3.10;;
71083;SDS011;58741;52.672;13.548;2024-03-22T11:06:52;6.63;;;3.63;;
71083;SDS011;58741;52.672;13.548;2024-03-22T11:09:18;11.20;;;5.93;;
71083;SDS011;58741;52.672;13.548;2024-03-22T11:11:48;12.98;;;6.95;;
71083;SDS011;58741;52.672;13.548;2024-03-22T11:14:17;10.48;;;5.85;;
71083;SDS011;58741;52.672;13.548;2024-03-22T11:16:46;15.52;;;7.20;;
71083;SDS011;58741;52.672;13.548;2024-03-22T11:19:12;11.40;;;5.57;;
71083;SDS011;58741;52.672;13.548;2024-03-22T11:21:38;10.98;;;5.35;;
71083;SDS011;58741;52.672;13.548;2024-03-22T11:24:05;8.07;;;5.25;;
71083;SDS011;58741;52.672;13.548;2024-03-22T11:26:31;6.85;;;4.03;;
71083;SDS011;58741;52.672;13.548;2024-03-22T11:28:58;8.18;;;3.50;;
71083;SDS011;58741;52.672;13.548;2024-03-22T11:31:24;5.60;;;3.42;;
71083;SDS011;58741;52.672;13.548;2024-03-22T11:33:52;8.75;;;5.15;;
71083;SDS011;58741;52.672;13.548;2024-03-22T11:36:19;13.68;;;5.93;;
71083;SDS011;58741;52.672;13.548;2024-03-22T11:38:46;10.50;;;5.60;;
71083;SDS011;58741;52.672;13.548;2024-03-22T11:41:16;7.95;;;4.32;;
71083;SDS011;58741;52.672;13.548;2024-03-22T11:43:44;6.95;;;4.35;;
71083;SDS011;58741;52.672;13.548;2024-03-22T11:46:11;10.43;;;6.07;;
71083;SDS011;58741;52.672;13.548;2024-03-22T11:48:40;9.68;;;4.95;;
71083;SDS011;58741;52.672;13.548;2024-03-22T11:51:09;10.50;;;4.45;;
71083;SDS011;58741;52.672;13.548;2024-03-22T11:53:35;5.82;;;3.33;;
71083;SDS011;58741;52.672;13.548;2024-03-22T11:56:05;6.07;;;3.38;;
71083;SDS011;58741;52.672;13.548;2024-03-22T11:58:33;9.80;;;4.05;;
71083;SDS011;58741;52.672;13.548;2024-03-22T12:00:59;7.97;;;4.57;;
71083;SDS011;58741;52.672;13.548;2024-03-22T12:03:25;11.57;;;5.78;;
71083;SDS011;58741;52.672;13.548;2024-03-22T12:05:52;9.50;;;4.85;;
71083;SDS011;58741;52.672;13.548;2024-03-22T12:08:20;7.10;;;3.92;;
71083;SDS011;58741;52.672;13.548;2024-03-22T12:10:47;5.47;;;2.88;;
71083;SDS011;58741;52.672;13.548;2024-03-22T12:13:13;6.82;;;3.60;;
71083;SDS011;58741;52.672;13.548;2024-03-22T12:15:39;6.80;;;3.60;;
71083;SDS011;58741;52.672;13.548;2024-03-22T12:18:05;6.30;;;3.30;;
71083;SDS011;58741;52.672;13.548;2024-03-22T12:20:31;8.55;;;4.80;;
71083;SDS011;58741;52.672;13.548;2024-03-22T12:22:57;6.82;;;4.30;;
71083;SDS011;58741;52.672;13.548;2024-03-22T12:25:23;9.82;;;3.67;;
71083;SDS011;58741;52.672;13.548;2024-03-22T12:27:49;7.25;;;3.38;;
71083;SDS011;58741;52.672;13.548;2024-03-22T12:30:15;7.57;;;3.80;;
71083;SDS011;58741;52.672;13.548;2024-03-22T12:32:41;9.05;;;3.90;;
71083;SDS011;58741;52.672;13.548;2024-03-22T12:35:07;10.65;;;4.25;;
71083;SDS011;58741;52.672;13.548;2024-03-22T12:37:33;9.30;;;4.55;;
71083;SDS011;58741;52.672;13.548;2024-03-22T12:39:59;7.07;;;4.28;;
71083;SDS011;58741;52.672;13.548;2024-03-22T12:42:25;9.27;;;5.25;;
71083;SDS011;58741;52.672;13.548;2024-03-22T12:44:51;8.68;;;5.28;;
71083;SDS011;58741;52.672;13.548;2024-03-22T12:47:16;8.68;;;4.22;;
71083;SDS011;58741;52.672;13.548;2024-03-22T12:49:42;8.35;;;4.22;;
71083;SDS011;58741;52.672;13.548;2024-03-22T12:52:08;7.20;;;3.17;;
71083;SDS011;58741;52.672;13.548;2024-03-22T12:54:35;4.88;;;3.28;;
71083;SDS011;58741;52.672;13.548;2024-03-22T12:57:01;6.07;;;3.25;;
71083;SDS011;58741;52.672;13.548;2024-03-22T12:59:27;9.25;;;4.30;;
71083;SDS011;58741;52.672;13.548;2024-03-22T13:01:53;7.78;;;3.97;;
71083;SDS011;58741;52.672;13.548;2024-03-22T13:04:19;7.28;;;3.72;;
71083;SDS011;58741;52.672;13.548;2024-03-22T13:06:44;6.65;;;3.40;;
71083;SDS011;58741;52.672;13.548;2024-03-22T13:09:13;13.73;;;5.20;;
71083;SDS011;58741;52.672;13.548;2024-03-22T13:11:39;8.25;;;4.70;;
71083;SDS011;58741;52.672;13.548;2024-03-22T13:14:06;7.47;;;4.07;;
71083;SDS011;58741;52.672;13.548;2024-03-22T13:16:32;7.43;;;3.60;;
71083;SDS011;58741;52.672;13.548;2024-03-22T13:18:58;7.88;;;3.55;;
71083;SDS011;58741;52.672;13.548;2024-03-22T13:21:24;9.30;;;3.97;;
71083;SDS011;58741;52.672;13.548;2024-03-22T13:23:50;8.82;;;4.82;;
71083;SDS011;58741;52.672;13.548;2024-03-22T13:26:16;9.55;;;4.40;;
71083;SDS011;58741;52.672;13.548;2024-03-22T13:28:42;9.05;;;4.38;;
71083;SDS011;58741;52.672;13.548;2024-03-22T13:31:08;9.43;;;4.20;;
71083;SDS011;58741;52.672;13.548;2024-03-22T13:33:34;7.25;;;3.85;;
71083;SDS011;58741;52.672;13.548;2024-03-22T13:36:01;8.40;;;3.85;;
71083;SDS011;58741;52.672;13.548;2024-03-22T13:38:27;9.43;;;4.55;;
71083;SDS011;58741;52.672;13.548;2024-03-22T13:40:54;7.55;;;4.47;;
71083;SDS011;58741;52.672;13.548;2024-03-22T13:43:25;10.93;;;4.32;;
71083;SDS011;58741;52.672;13.548;2024-03-22T13:45:52;8.88;;;4.28;;
71083;SDS011;58741;52.672;13.548;2024-03-22T13:48:22;7.35;;;4.20;;
71083;SDS011;58741;52.672;13.548;2024-03-22T13:50:50;7.53;;;3.45;;
71083;SDS011;58741;52.672;13.548;2024-03-22T13:53:17;8.77;;;4.20;;
71083;SDS011;58741;52.672;13.548;2024-03-22T13:55:43;7.32;;;4.13;;
71083;SDS011;58741;52.672;13.548;2024-03-22T13:58:08;6.07;;;3.72;;
71083;SDS011;58741;52.672;13.548;2024-03-22T14:00:34;10.02;;;4.63;;
71083;SDS011;58741;52.672;13.548;2024-03-22T14:03:01;8.05;;;4.25;;
71083;SDS011;58741;52.672;13.548;2024-03-22T14:05:27;10.10;;;4.60;;
71083;SDS011;58741;52.672;13.548;2024-03-22T14:07:53;6.95;;;3.80;;
71083;SDS011;58741;52.672;13.548;2024-03-22T14:10:19;7.85;;;3.78;;
71083;SDS011;58741;52.672;13.548;2024-03-22T14:12:46;7.90;;;3.90;;
71083;SDS011;58741;52.672;13.548;2024-03-22T14:15:12;6.50;;;3.97;;
71083;SDS011;58741;52.672;13.548;2024-03-22T14:17:38;9.93;;;4.25;;
71083;SDS011;58741;52.672;13.548;2024-03-22T14:20:04;6.65;;;3.80;;
71083;SDS011;58741;52.672;13.548;2024-03-22T14:22:40;7.70;;;3.97;;
71083;SDS011;58741;52.672;13.548;2024-03-22T14:25:06;8.88;;;4.38;;
71083;SDS011;58741;52.672;13.548;2024-03-22T14:27:34;6.80;;;3.15;;